Time;durP1;ratioP1;P1;durP2;ratioP2;P2;SDS_P1;SDS_P2;PMS_P1;PMS_P2;Temp;Humidity;BMP_temperature;BMP_pressure;BME280_temperature;BME280_humidity;BME280_pressure;Samples;Min_cycle;Max_cycle;Signal;HPM_P1;HPM_P2
2022/07/02 00:01:03;;;;;;;3.95;1.73;;;;;;;18.46;52.08;100424.03;4991173;28;20058;-60
2022/07/02 00:03:37;;;;;;;3.83;1.42;;;;;;;18.39;51.65;100418.34;4991258;28;20054;-61
2022/07/02 00:06:06;;;;;;;5.28;1.52;;;;;;;18.38;52.06;100423.81;4991219;28;20054;-63
2022/07/02 00:08:33;;;;;;;5.68;2.03;;;;;;;18.34;52.13;100423.19;4990956;28;20046;-61
2022/07/02 00:11:03;;;;;;;3.65;1.13;;;;;;;18.31;52.36;100416.28;4991721;28;20054;-60
2022/07/02 00:13:30;;;;;;;3.58;1.20;;;;;;;18.30;52.56;100425.28;4977404;28;20491;-62
2022/07/02 00:15:57;;;;;;;5.68;1.40;;;;;;;18.30;52.51;100417.28;4994829;28;20138;-62
2022/07/02 00:18:24;;;;;;;3.63;1.45;;;;;;;18.30;52.47;100414.63;4994930;28;20510;-61
2022/07/02 00:20:50;;;;;;;1.52;1.00;;;;;;;18.30;52.71;100422.59;4994741;28;20050;-62
2022/07/02 00:23:17;;;;;;;3.70;1.17;;;;;;;18.32;52.51;100420.66;4995082;28;20046;-61
2022/07/02 00:25:56;;;;;;;4.47;1.67;;;;;;;18.31;52.05;100420.78;4994427;28;20466;-61
2022/07/02 00:28:25;;;;;;;5.50;1.40;;;;;;;18.36;52.53;100410.63;4994845;28;20050;-61
2022/07/02 00:30:52;;;;;;;3.83;1.27;;;;;;;18.36;52.52;100406.13;4994471;28;20054;-61
2022/07/02 00:33:23;;;;;;;3.67;1.35;;;;;;;18.37;52.43;100409.63;4994409;28;20108;-64
2022/07/02 00:35:50;;;;;;;4.68;1.40;;;;;;;18.36;52.44;100416.78;4977107;28;20046;-61
2022/07/02 00:38:16;;;;;;;3.03;1.10;;;;;;;18.34;52.55;100417.88;4994151;28;20050;-61
2022/07/02 00:40:44;;;;;;;5.55;1.38;;;;;;;18.34;52.21;100420.53;4994348;28;20050;-63
2022/07/02 00:43:11;;;;;;;3.95;1.20;;;;;;;18.30;52.74;100414.63;4977472;28;20059;-61
2022/07/02 00:45:38;;;;;;;3.17;1.40;;;;;;;18.29;52.57;100422.72;4994136;28;20053;-61
2022/07/02 00:48:05;;;;;;;5.43;1.60;;;;;;;18.25;52.67;100419.47;4976947;28;20054;-60
2022/07/02 00:50:31;;;;;;;4.05;1.52;;;;;;;18.23;52.87;100418.72;4994167;28;20100;-61
2022/07/02 00:52:58;;;;;;;3.25;1.40;;;;;;;18.21;52.50;100418.84;4994498;28;20494;-60
2022/07/02 00:55:24;;;;;;;3.33;1.15;;;;;;;18.19;52.77;100420.78;4994327;28;20091;-61
2022/07/02 00:57:51;;;;;;;6.05;1.70;;;;;;;18.15;53.02;100413.16;4993988;28;20053;-61
2022/07/02 01:00:19;;;;;;;5.13;1.40;;;;;;;18.10;52.89;100414.34;4994001;28;20058;-61
2022/07/02 01:02:47;;;;;;;2.17;1.35;;;;;;;18.06;52.91;100407.53;4976635;28;20066;-61
2022/07/02 01:05:15;;;;;;;2.15;1.42;;;;;;;18.05;53.25;100410.34;4993950;28;20130;-64
2022/07/02 01:07:45;;;;;;;3.78;1.50;;;;;;;18.00;53.06;100401.84;4994089;28;20053;-60
2022/07/02 01:10:17;;;;;;;3.88;1.67;;;;;;;17.97;52.88;100402.94;4993968;28;20051;-61
2022/07/02 01:12:48;;;;;;;4.95;1.42;;;;;;;17.93;52.97;100407.66;4993638;28;20058;-61
2022/07/02 01:15:16;;;;;;;5.40;1.42;;;;;;;17.90;53.21;100405.22;4993813;28;20053;-61
2022/07/02 01:17:43;;;;;;;3.38;1.75;;;;;;;17.88;53.57;100404.50;4993617;28;20520;-61
2022/07/02 01:20:10;;;;;;;4.75;1.52;;;;;;;17.86;53.84;100402.94;4993491;28;20050;-61
2022/07/02 01:22:38;;;;;;;6.40;1.77;;;;;;;17.84;53.80;100405.72;4993106;28;20038;-61
2022/07/02 01:25:06;;;;;;;4.57;2.20;;;;;;;17.83;53.88;100404.03;4993598;28;20062;-61
2022/07/02 01:27:33;;;;;;;2.20;1.60;;;;;;;17.81;53.93;100404.16;4993553;28;20046;-60
2022/07/02 01:30:00;;;;;;;5.43;1.88;;;;;;;17.78;53.94;100401.72;4976052;28;20054;-64
2022/07/02 01:32:27;;;;;;;3.80;1.90;;;;;;;17.76;53.89;100400.13;4993237;28;20548;-61
2022/07/02 01:35:02;;;;;;;4.40;1.52;;;;;;;17.69;53.81;100399.75;4976179;28;20046;-61
2022/07/02 01:37:29;;;;;;;4.18;1.60;;;;;;;17.70;54.42;100398.78;4975933;28;20474;-61
2022/07/02 01:39:55;;;;;;;3.58;1.45;;;;;;;17.71;54.36;100397.81;4993210;28;20109;-61
2022/07/02 01:42:22;;;;;;;4.00;1.70;;;;;;;17.70;54.16;100401.44;4993300;28;20050;-63
2022/07/02 01:44:48;;;;;;;3.10;1.38;;;;;;;17.68;54.28;100390.91;4993257;28;20046;-63
2022/07/02 01:47:15;;;;;;;2.67;1.40;;;;;;;17.68;54.42;100396.25;4993097;28;20053;-63
2022/07/02 01:49:42;;;;;;;3.42;1.92;;;;;;;17.67;54.22;100401.69;4993083;28;20050;-62
2022/07/02 01:52:09;;;;;;;3.65;1.90;;;;;;;17.66;54.38;100395.53;4993117;28;20073;-63
2022/07/02 01:54:36;;;;;;;3.65;1.70;;;;;;;17.65;54.52;100399.13;4993203;28;20054;-63
2022/07/02 01:57:04;;;;;;;2.92;1.63;;;;;;;17.63;54.47;100395.75;4993009;28;20386;-61
2022/07/02 01:59:30;;;;;;;2.88;1.92;;;;;;;17.62;54.38;100398.53;4992510;28;20493;-60
2022/07/02 02:01:57;;;;;;;6.63;1.85;;;;;;;17.61;54.44;100399.50;4993149;28;20046;-62
2022/07/02 02:04:24;;;;;;;5.18;2.17;;;;;;;17.58;54.75;100398.75;4993273;28;20054;-61
2022/07/02 02:06:50;;;;;;;3.47;1.60;;;;;;;17.57;54.57;100401.56;4992770;28;20426;-60
2022/07/02 02:09:17;;;;;;;5.30;1.70;;;;;;;17.56;54.81;100402.50;4992583;28;20434;-63
2022/07/02 02:11:44;;;;;;;3.63;1.80;;;;;;;17.55;54.91;100403.47;4992615;28;20549;-61
2022/07/02 02:14:11;;;;;;;3.63;1.55;;;;;;;17.54;54.60;100401.78;4992469;28;20069;-60
2022/07/02 02:16:38;;;;;;;2.17;1.35;;;;;;;17.53;54.73;100400.09;4975444;28;20434;-61
2022/07/02 02:19:05;;;;;;;6.28;2.13;;;;;;;17.50;54.80;100402.97;4975221;28;20046;-61
2022/07/02 02:21:32;;;;;;;2.70;1.80;;;;;;;17.47;54.71;100409.38;4992587;28;20042;-61
2022/07/02 02:23:59;;;;;;;4.47;1.77;;;;;;;17.44;54.94;100404.28;4992447;28;20498;-61
2022/07/02 02:26:26;;;;;;;3.95;1.73;;;;;;;17.41;55.16;100401.84;4974887;28;20039;-61
2022/07/02 02:28:53;;;;;;;4.38;1.95;;;;;;;17.39;55.15;100406.47;4992566;28;20049;-63
2022/07/02 02:31:24;;;;;;;4.72;1.63;;;;;;;17.34;54.95;100400.63;4992901;28;20053;-60
2022/07/02 02:33:51;;;;;;;4.28;2.30;;;;;;;17.33;55.10;100397.13;4974572;28;20129;-62
2022/07/02 02:36:18;;;;;;;5.60;2.17;;;;;;;17.33;55.40;100405.09;4991783;28;20124;-64
2022/07/02 02:38:46;;;;;;;2.63;1.65;;;;;;;17.31;55.24;100404.38;4992144;28;20047;-61
2022/07/02 02:41:14;;;;;;;3.03;1.70;;;;;;;17.29;55.57;100404.50;4991989;28;20458;-60
2022/07/02 02:43:41;;;;;;;4.28;1.90;;;;;;;17.27;55.52;100413.56;4975025;28;20455;-61
2022/07/02 02:46:08;;;;;;;3.47;2.08;;;;;;;17.25;55.53;100404.81;4974599;28;20095;-61
2022/07/02 02:48:36;;;;;;;6.05;2.10;;;;;;;17.21;55.58;100406.88;4992016;28;20145;-60
2022/07/02 02:51:04;;;;;;;3.33;2.22;;;;;;;17.18;55.62;100404.44;4974570;28;20046;-61
2022/07/02 02:53:31;;;;;;;5.28;2.17;;;;;;;17.17;55.99;100400.09;4974598;28;20062;-62
2022/07/02 02:55:59;;;;;;;3.30;2.10;;;;;;;17.14;55.87;100405.63;4991736;28;20490;-61
2022/07/02 02:58:26;;;;;;;4.05;2.15;;;;;;;17.12;55.88;100412.88;4992003;28;20395;-60
2022/07/02 03:00:53;;;;;;;2.97;1.85;;;;;;;17.09;56.09;100411.31;4992005;28;20054;-63
2022/07/02 03:03:20;;;;;;;3.20;2.25;;;;;;;17.07;56.16;100421.19;4974714;28;20053;-63
2022/07/02 03:05:47;;;;;;;3.22;2.05;;;;;;;17.05;56.11;100423.97;4991736;28;20104;-61
2022/07/02 03:08:13;;;;;;;2.78;2.00;;;;;;;17.02;56.50;100421.53;4991592;28;20062;-60
2022/07/02 03:10:40;;;;;;;5.60;2.25;;;;;;;17.03;56.88;100430.34;4991683;28;20054;-64
2022/07/02 03:13:07;;;;;;;3.47;2.20;;;;;;;17.01;56.77;100430.44;4991880;28;20446;-60
2022/07/02 03:15:34;;;;;;;3.80;1.50;;;;;;;17.01;56.91;100425.13;4991390;28;20442;-61
2022/07/02 03:18:01;;;;;;;5.03;2.20;;;;;;;17.02;56.96;100425.97;4974333;28;20388;-61
2022/07/02 03:20:27;;;;;;;6.30;2.30;;;;;;;17.03;56.95;100431.19;4991754;28;20085;-61
2022/07/02 03:22:54;;;;;;;6.35;2.40;;;;;;;17.04;57.01;100430.25;4991521;28;20124;-60
2022/07/02 03:25:21;;;;;;;5.45;2.25;;;;;;;17.05;57.13;100431.13;4991704;28;20190;-64
2022/07/02 03:27:47;;;;;;;4.45;2.20;;;;;;;17.06;56.96;100431.00;4991612;28;20553;-62
2022/07/02 03:30:14;;;;;;;4.40;2.20;;;;;;;17.05;57.01;100429.28;4991288;28;20038;-60
2022/07/02 03:32:40;;;;;;;4.68;2.30;;;;;;;17.08;57.14;100430.88;4991606;28;20050;-61
2022/07/02 03:35:07;;;;;;;3.78;2.28;;;;;;;17.08;57.06;100433.53;4991523;28;20445;-61
2022/07/02 03:37:34;;;;;;;5.15;2.30;;;;;;;17.09;56.95;100434.38;4991206;28;20050;-60
2022/07/02 03:40:00;;;;;;;4.30;2.35;;;;;;;17.09;57.22;100434.38;4991341;28;20050;-60
2022/07/02 03:42:27;;;;;;;4.68;2.22;;;;;;;17.09;57.14;100437.91;4991390;28;20057;-63
2022/07/02 03:44:53;;;;;;;4.47;2.50;;;;;;;17.11;57.19;100438.63;4991419;28;20057;-61
2022/07/02 03:47:20;;;;;;;5.20;2.75;;;;;;;17.11;57.15;100432.44;4994214;28;20046;-61
2022/07/02 03:49:47;;;;;;;4.25;2.45;;;;;;;17.09;57.12;100445.03;4995199;28;20065;-62
2022/07/02 03:52:13;;;;;;;6.35;2.92;;;;;;;17.10;57.16;100446.72;4995425;28;20383;-62
2022/07/02 03:54:40;;;;;;;4.82;2.42;;;;;;;17.09;57.21;100445.03;4995467;28;20054;-60
2022/07/02 03:57:08;;;;;;;4.47;2.28;;;;;;;17.09;57.32;100445.88;4995152;28;20050;-62
2022/07/02 03:59:35;;;;;;;8.32;2.70;;;;;;;17.10;57.30;100447.56;4977729;28;20498;-60
2022/07/02 04:02:01;;;;;;;3.35;2.45;;;;;;;17.10;57.58;100447.56;4995002;28;20077;-62
2022/07/02 04:04:28;;;;;;;4.57;2.42;;;;;;;17.11;57.57;100453.72;4995119;28;20382;-61
2022/07/02 04:06:55;;;;;;;5.10;2.47;;;;;;;17.12;57.63;100447.47;4995145;28;20441;-61
2022/07/02 04:09:21;;;;;;;4.45;2.53;;;;;;;17.12;57.52;100448.31;4994574;28;20478;-62
2022/07/02 04:11:48;;;;;;;5.18;2.50;;;;;;;17.14;57.54;100449.06;4995055;28;20054;-61
2022/07/02 04:14:15;;;;;;;3.85;2.50;;;;;;;17.16;57.49;100446.28;4994937;28;20438;-61
2022/07/02 04:16:41;;;;;;;3.45;2.42;;;;;;;17.17;57.58;100447.97;4994873;28;20448;-61
2022/07/02 04:19:08;;;;;;;5.05;2.63;;;;;;;17.19;57.83;100454.00;4994441;28;20076;-63
2022/07/02 04:21:40;;;;;;;4.65;2.85;;;;;;;17.19;57.50;100454.88;4995070;28;20450;-61
2022/07/02 04:24:07;;;;;;;8.90;2.75;;;;;;;17.22;57.53;100455.59;4994665;28;20042;-61
2022/07/02 04:26:34;;;;;;;4.50;2.78;;;;;;;17.21;57.48;100454.75;4994738;28;20050;-62
2022/07/02 04:29:01;;;;;;;5.80;3.10;;;;;;;17.21;57.72;100454.75;4994481;28;20124;-60
2022/07/02 04:31:29;;;;;;;4.10;2.75;;;;;;;17.20;57.56;100455.72;4977156;28;20054;-62
2022/07/02 04:33:56;;;;;;;7.85;3.15;;;;;;;17.21;57.59;100453.91;4994220;28;20077;-63
2022/07/02 04:36:23;;;;;;;4.80;3.10;;;;;;;17.20;57.67;100458.41;4994822;28;20046;-60
2022/07/02 04:38:50;;;;;;;5.25;2.88;;;;;;;17.22;57.86;100456.47;4994130;28;20069;-61
2022/07/02 04:41:16;;;;;;;6.18;3.03;;;;;;;17.23;57.61;100462.63;4994391;28;20132;-61
2022/07/02 04:43:43;;;;;;;5.57;2.90;;;;;;;17.24;57.74;100461.66;4994216;28;20046;-60
2022/07/02 04:46:10;;;;;;;4.50;3.20;;;;;;;17.26;57.94;100463.25;4994243;28;20050;-60
2022/07/02 04:48:36;;;;;;;5.53;3.10;;;;;;;17.28;57.95;100465.81;4994205;28;20042;-63
2022/07/02 04:51:03;;;;;;;3.88;2.60;;;;;;;17.30;57.85;100461.19;4994696;28;20047;-61
2022/07/02 04:53:30;;;;;;;6.05;3.65;;;;;;;17.32;57.59;100462.78;4994186;28;20048;-60
2022/07/02 04:55:56;;;;;;;5.10;3.10;;;;;;;17.34;57.86;100460.00;4994071;28;20045;-61
2022/07/02 04:58:23;;;;;;;7.55;3.50;;;;;;;17.37;57.83;100465.09;4992715;28;20407;-61
2022/07/02 05:00:49;;;;;;;7.20;3.08;;;;;;;17.39;57.63;100457.88;4976834;28;20075;-60
2022/07/02 05:03:16;;;;;;;6.03;3.60;;;;;;;17.41;57.65;100449.75;4994439;28;20062;-63
2022/07/02 05:05:42;;;;;;;5.30;2.90;;;;;;;17.44;57.90;100460.19;4976770;28;20226;-60
2022/07/02 05:08:09;;;;;;;4.43;3.05;;;;;;;17.48;57.74;100464.31;4993823;28;20438;-61
2022/07/02 05:10:36;;;;;;;7.88;3.45;;;;;;;17.51;57.84;100464.09;4993861;28;20049;-61
2022/07/02 05:13:04;;;;;;;4.45;3.33;;;;;;;17.54;57.82;100461.16;4993880;28;20053;-61
2022/07/02 05:15:31;;;;;;;6.38;3.20;;;;;;;17.57;57.59;100466.28;4994037;28;20042;-60
2022/07/02 05:17:57;;;;;;;4.90;3.33;;;;;;;17.61;57.59;100468.72;4993874;28;20508;-62
2022/07/02 05:20:24;;;;;;;5.90;3.33;;;;;;;17.64;57.71;100461.34;4993725;28;20053;-62
2022/07/02 05:22:50;;;;;;;5.13;3.00;;;;;;;17.68;57.77;100469.97;4993626;28;20109;-61
2022/07/02 05:25:17;;;;;;;6.22;3.03;;;;;;;17.70;57.72;100466.22;4993713;28;20479;-65
2022/07/02 05:27:44;;;;;;;5.90;3.42;;;;;;;17.75;57.64;100473.00;4993518;28;20100;-61
2022/07/02 05:30:10;;;;;;;5.22;3.10;;;;;;;17.79;57.55;100474.47;4993368;28;20053;-64
2022/07/02 05:32:38;;;;;;;5.75;3.38;;;;;;;17.82;57.58;100472.41;4993807;28;20054;-72
2022/07/02 05:35:05;;;;;;;6.18;3.20;;;;;;;17.86;57.49;100469.53;4975866;28;20113;-61
2022/07/02 05:37:31;;;;;;;4.65;3.20;;;;;;;17.91;57.64;100475.34;4993353;28;20046;-60
2022/07/02 05:39:58;;;;;;;4.63;3.00;;;;;;;17.94;57.55;100475.94;4992889;28;20105;-61
2022/07/02 05:42:24;;;;;;;5.07;3.05;;;;;;;17.97;57.16;100483.69;4993485;28;20101;-61
2022/07/02 05:44:51;;;;;;;6.68;2.83;;;;;;;18.01;57.56;100484.31;4993225;28;20101;-61
2022/07/02 05:47:17;;;;;;;4.13;2.90;;;;;;;18.04;57.45;100488.53;4993315;28;20042;-63
2022/07/02 05:49:44;;;;;;;6.65;3.50;;;;;;;18.07;57.34;100485.66;4993012;28;20054;-61
2022/07/02 05:52:11;;;;;;;5.32;3.08;;;;;;;18.13;57.36;100492.34;4993261;28;20054;-61
2022/07/02 05:54:37;;;;;;;3.58;2.80;;;;;;;18.17;57.28;100488.50;4992902;28;20093;-60
2022/07/02 05:57:04;;;;;;;6.00;3.55;;;;;;;18.21;57.08;100495.28;4992758;28;20097;-62
2022/07/02 05:59:31;;;;;;;6.60;3.08;;;;;;;18.23;56.87;100494.19;4993061;28;20058;-62
2022/07/02 06:01:58;;;;;;;7.28;3.17;;;;;;;18.26;56.77;100490.44;4993052;28;20050;-60
2022/07/02 06:04:24;;;;;;;7.32;3.10;;;;;;;18.29;56.80;100492.88;4992937;28;20077;-62
2022/07/02 06:09:36;;;;;;;5.45;2.78;;;;;;;18.34;56.88;100490.69;4992331;28;20054;-63
2022/07/02 06:12:03;;;;;;;4.28;2.65;;;;;;;18.38;56.48;100493.13;4992601;28;20064;-61
2022/07/02 06:14:30;;;;;;;4.88;2.92;;;;;;;18.39;56.58;100500.13;4992515;28;20046;-62
2022/07/02 06:16:56;;;;;;;4.88;2.67;;;;;;;18.43;56.44;100499.75;4992442;28;20479;-63
2022/07/02 06:19:23;;;;;;;5.30;3.05;;;;;;;18.46;56.43;100496.88;4992679;28;20116;-61
2022/07/02 06:21:49;;;;;;;4.38;2.70;;;;;;;18.49;56.87;100499.28;4992434;28;20057;-61
2022/07/02 06:24:16;;;;;;;6.35;2.90;;;;;;;18.55;56.68;100507.78;4992354;28;20096;-64
2022/07/02 06:26:43;;;;;;;3.90;2.70;;;;;;;18.58;56.75;100503.03;4992581;28;20422;-62
2022/07/02 06:29:09;;;;;;;4.60;2.55;;;;;;;18.63;56.93;100508.03;4992612;28;20426;-61
2022/07/02 06:31:37;;;;;;;5.53;2.90;;;;;;;18.69;56.77;100506.69;4992381;28;20050;-61
2022/07/02 06:34:04;;;;;;;5.60;2.47;;;;;;;18.74;56.23;100512.50;4992304;28;20050;-62
2022/07/02 06:36:31;;;;;;;4.70;2.67;;;;;;;18.80;56.43;100516.50;4992045;28;20043;-60
2022/07/02 06:38:57;;;;;;;5.47;2.78;;;;;;;18.84;56.32;100510.78;4992088;28;20046;-62
2022/07/02 06:44:09;;;;;;;4.53;2.50;;;;;;;18.97;56.24;100517.81;4992330;28;20055;-62
2022/07/02 06:46:36;;;;;;;6.47;2.80;;;;;;;19.03;56.52;100517.31;4992110;28;20042;-62
2022/07/02 06:49:02;;;;;;;5.93;2.65;;;;;;;19.09;56.23;100526.66;4991843;28;20061;-62
2022/07/02 06:51:29;;;;;;;5.18;2.67;;;;;;;19.15;56.28;100526.19;4991988;28;20549;-64
2022/07/02 06:54:00;;;;;;;9.15;2.40;;;;;;;19.22;56.11;100522.03;4992140;28;20042;-61
2022/07/02 06:56:28;;;;;;;4.38;2.08;;;;;;;19.29;55.85;100526.88;4992071;28;20498;-61
2022/07/02 06:58:56;;;;;;;5.82;2.67;;;;;;;19.35;55.78;100519.22;4991779;28;20815;-61
2022/07/02 07:01:22;;;;;;;6.50;2.17;;;;;;;19.43;55.93;100523.91;4974595;28;20047;-62
2022/07/02 07:03:49;;;;;;;5.28;2.47;;;;;;;19.51;55.68;100523.28;4991733;28;20050;-64
2022/07/02 07:06:17;;;;;;;8.18;3.35;;;;;;;19.57;55.64;100524.59;4991700;28;20046;-62
2022/07/02 07:08:43;;;;;;;9.50;2.90;;;;;;;19.63;55.78;100526.75;4991790;28;20124;-61
2022/07/02 07:11:10;;;;;;;5.72;2.30;;;;;;;19.70;55.83;100527.09;4991844;28;20050;-63
2022/07/02 07:13:37;;;;;;;4.25;2.10;;;;;;;19.76;55.73;100530.09;4991566;28;20046;-61
2022/07/02 07:16:11;;;;;;;4.30;2.10;;;;;;;19.85;55.67;100535.66;4991363;28;20125;-61
2022/07/02 07:18:37;;;;;;;6.43;2.55;;;;;;;19.90;55.36;100536.97;4991647;28;20104;-65
2022/07/02 07:21:04;;;;;;;5.50;2.40;;;;;;;19.98;55.04;100533.66;4990970;28;20038;-62
2022/07/02 07:23:33;;;;;;;4.63;1.98;;;;;;;20.06;54.97;100535.69;4991689;28;20065;-61
2022/07/02 07:26:00;;;;;;;6.15;2.03;;;;;;;20.14;54.43;100532.34;4974136;28;20042;-63
2022/07/02 07:28:27;;;;;;;5.40;2.00;;;;;;;20.22;54.56;100539.72;4991216;28;20112;-62
2022/07/02 07:30:54;;;;;;;4.45;2.17;;;;;;;20.29;54.52;100544.41;4991330;28;20540;-61
2022/07/02 07:33:22;;;;;;;5.82;2.30;;;;;;;20.35;53.88;100540.38;4991453;28;20054;-62
2022/07/02 07:35:48;;;;;;;5.75;2.28;;;;;;;20.40;53.76;100535.47;4991614;28;20049;-61
2022/07/02 07:38:15;;;;;;;7.45;2.13;;;;;;;20.48;53.71;100548.16;4990998;28;20049;-61
2022/07/02 07:40:42;;;;;;;7.05;2.33;;;;;;;20.52;54.12;100532.72;4991357;28;20047;-61
2022/07/02 07:43:08;;;;;;;7.32;2.13;;;;;;;20.59;53.62;100539.19;4991132;28;20050;-62
2022/07/02 07:45:35;;;;;;;4.88;2.55;;;;;;;20.65;53.33;100540.50;4991299;28;20061;-62
2022/07/02 07:48:02;;;;;;;5.70;2.10;;;;;;;20.72;53.66;100541.66;4991299;28;20078;-61
2022/07/02 07:50:28;;;;;;;5.93;2.17;;;;;;;20.79;53.47;100531.28;4991300;28;20049;-64
2022/07/02 07:52:55;;;;;;;8.23;2.55;;;;;;;20.87;54.12;100535.94;4991244;28;20116;-61
2022/07/02 07:55:21;;;;;;;5.63;2.47;;;;;;;20.95;53.76;100534.31;4991020;28;20038;-61
2022/07/02 07:57:48;;;;;;;4.60;2.50;;;;;;;21.04;53.35;100540.66;4991065;28;20042;-61
2022/07/02 08:00:15;;;;;;;6.65;2.72;;;;;;;21.11;52.85;100543.63;4990995;28;20585;-61
2022/07/02 08:02:42;;;;;;;6.90;2.47;;;;;;;21.18;52.98;100535.91;4973995;28;20054;-61
2022/07/02 08:05:09;;;;;;;5.32;2.17;;;;;;;21.25;52.98;100533.50;4990954;28;20556;-65
2022/07/02 08:07:37;;;;;;;3.35;1.92;;;;;;;21.31;52.56;100527.63;4991155;28;20049;-61
2022/07/02 08:10:06;;;;;;;3.70;2.10;;;;;;;21.39;52.11;100527.78;4973467;28;20471;-60
2022/07/02 08:12:33;;;;;;;4.15;2.22;;;;;;;21.48;52.33;100531.44;4991260;28;20054;-60
2022/07/02 08:14:59;;;;;;;4.35;2.22;;;;;;;21.56;52.91;100528.03;4990788;28;20046;-62
2022/07/02 08:17:29;;;;;;;4.93;2.03;;;;;;;21.66;52.43;100536.09;4991005;28;20077;-62
2022/07/02 08:19:56;;;;;;;4.03;1.88;;;;;;;21.74;51.91;100534.44;4990626;28;20046;-61
2022/07/02 08:22:24;;;;;;;4.35;2.20;;;;;;;21.84;51.65;100537.13;4973637;28;20046;-63
2022/07/02 08:24:50;;;;;;;5.63;2.42;;;;;;;21.94;51.42;100536.25;4990699;28;20525;-61
2022/07/02 08:27:17;;;;;;;3.58;2.20;;;;;;;22.03;52.47;100529.19;4990931;28;20426;-64
2022/07/02 08:29:44;;;;;;;5.43;2.47;;;;;;;22.15;51.87;100525.34;4990747;28;20046;-61
2022/07/02 08:32:10;;;;;;;6.80;2.08;;;;;;;22.26;51.14;100532.38;4992070;28;20046;-61
2022/07/02 08:34:37;;;;;;;5.82;1.90;;;;;;;22.37;51.81;100529.53;4994657;28;20050;-61
2022/07/02 08:37:04;;;;;;;5.32;2.40;;;;;;;22.48;51.35;100531.19;4994597;28;20077;-62
2022/07/02 08:39:31;;;;;;;5.22;2.22;;;;;;;22.59;50.77;100534.72;4993968;28;20053;-62
2022/07/02 08:42:00;;;;;;;3.63;1.95;;;;;;;22.68;50.63;100522.25;4994094;28;20057;-62
2022/07/02 08:44:27;;;;;;;7.30;1.90;;;;;;;22.78;50.69;100523.91;4994665;28;20506;-62
2022/07/02 08:46:56;;;;;;;3.83;1.67;;;;;;;22.89;50.39;100522.84;4994538;28;20054;-62
2022/07/02 08:49:22;;;;;;;2.05;1.30;;;;;;;23.01;49.83;100523.50;4993987;28;20042;-61
2022/07/02 08:52:12;;;;;;;3.85;1.40;;;;;;;23.17;49.17;100532.69;4994103;28;20050;-62
2022/07/02 08:54:36;;;;;;;3.47;1.10;;;;;;;23.29;49.01;100518.06;4994156;28;20066;-64
2022/07/02 08:57:03;;;;;;;5.30;1.40;;;;;;;23.42;48.50;100519.56;4993995;28;20054;-63
2022/07/02 08:59:31;;;;;;;3.17;1.33;;;;;;;23.55;48.28;100513.81;4993924;28;20380;-62
2022/07/02 09:02:00;;;;;;;4.10;1.42;;;;;;;23.66;47.30;100504.66;4993906;28;20077;-61
2022/07/02 09:04:27;;;;;;;3.60;1.15;;;;;;;23.80;47.27;100500.56;4994003;28;20090;-62
2022/07/02 09:07:00;;;;;;;2.28;0.90;;;;;;;23.93;47.38;100508.22;4976781;28;20096;-64
2022/07/02 09:09:27;;;;;;;2.25;0.90;;;;;;;24.07;46.92;100502.28;4976380;28;20046;-62
2022/07/02 09:11:55;;;;;;;2.10;1.00;;;;;;;24.22;46.24;100498.19;4993753;28;20042;-61
2022/07/02 09:14:22;;;;;;;2.50;1.00;;;;;;;24.36;47.57;100494.06;4976484;28;20046;-62
2022/07/02 09:16:50;;;;;;;3.00;1.27;;;;;;;24.52;46.63;100502.19;4993447;28;20431;-62
2022/07/02 09:19:17;;;;;;;1.88;1.00;;;;;;;24.68;47.01;100497.91;4976045;28;20046;-62
2022/07/02 09:21:50;;;;;;;2.35;1.15;;;;;;;24.83;46.09;100496.28;4993847;28;20125;-61
2022/07/02 09:24:52;;;;;;;4.22;1.42;;;;;;;25.00;43.27;100501.72;4993516;28;20542;-64
2022/07/02 09:27:18;;;;;;;4.15;1.25;;;;;;;25.23;45.88;100487.66;4895281;29;20041;-64
2022/07/02 09:29:46;;;;;;;3.03;1.23;;;;;;;25.36;44.94;100484.47;4973734;28;20534;-62
2022/07/02 09:32:14;;;;;;;2.33;0.88;;;;;;;25.48;44.12;100482.28;4993267;28;20068;-62
2022/07/02 09:34:49;;;;;;;1.98;0.68;;;;;;;25.54;37.51;100488.84;4993384;28;20073;-62
2022/07/02 09:37:19;;;;;;;2.38;0.80;;;;;;;25.62;41.22;100487.03;4993298;28;20042;-63
2022/07/02 09:39:48;;;;;;;2.17;0.63;;;;;;;25.68;42.26;100479.28;4993134;28;20056;-63
2022/07/02 09:42:32;;;;;;;3.13;0.88;;;;;;;25.66;40.98;100479.44;4993204;28;20395;-63
2022/07/02 09:45:00;;;;;;;2.83;1.05;;;;;;;25.70;42.35;100483.50;4992803;28;20054;-62
2022/07/02 09:47:31;;;;;;;1.55;0.80;;;;;;;25.65;41.04;100476.91;4993412;28;20100;-64
2022/07/02 09:50:03;;;;;;;0.93;0.63;;;;;;;25.60;41.12;100467.47;4993021;28;20133;-61
2022/07/02 09:52:30;;;;;;;3.40;0.95;;;;;;;25.58;42.71;100472.22;4992840;28;20478;-62
2022/07/02 09:54:57;;;;;;;4.00;0.85;;;;;;;25.56;42.12;100474.22;4993200;28;20104;-62
2022/07/02 09:57:23;;;;;;;5.63;1.02;;;;;;;25.56;41.62;100473.38;4993130;28;20054;-62
2022/07/02 09:59:50;;;;;;;1.17;0.60;;;;;;;25.53;41.74;100474.50;4993045;28;20046;-62
2022/07/02 10:02:24;;;;;;;3.13;0.88;;;;;;;25.46;41.03;100468.13;4992885;28;20097;-62
2022/07/02 10:04:53;;;;;;;1.75;0.70;;;;;;;25.48;41.49;100472.34;4992936;28;20072;-63
2022/07/02 10:07:22;;;;;;;0.73;0.68;;;;;;;25.46;40.68;100458.16;4993053;28;20050;-63
2022/07/02 10:09:52;;;;;;;1.13;0.50;;;;;;;25.45;40.46;100450.28;4992773;28;20046;-62
2022/07/02 10:12:19;;;;;;;2.28;0.80;;;;;;;25.44;41.11;100454.81;4975462;28;20054;-62
2022/07/02 10:14:47;;;;;;;2.40;0.82;;;;;;;25.42;41.23;100456.00;4992743;28;20054;-65
2022/07/02 10:17:15;;;;;;;4.10;1.13;;;;;;;25.42;41.45;100459.53;4993089;28;20050;-64
2022/07/02 10:19:42;;;;;;;2.50;0.82;;;;;;;25.48;41.54;100452.63;4992282;28;20724;-63
2022/07/02 10:22:09;;;;;;;2.08;1.02;;;;;;;25.53;40.28;100463.72;4992609;28;20042;-63
2022/07/02 10:24:36;;;;;;;2.58;0.73;;;;;;;25.60;40.65;100459.38;4992455;28;20054;-63
2022/07/02 10:27:04;;;;;;;2.15;1.10;;;;;;;25.67;40.79;100453.34;4992658;28;20578;-61
2022/07/02 10:29:31;;;;;;;2.00;0.80;;;;;;;25.76;42.61;100455.00;4992114;28;20050;-62
2022/07/02 10:32:22;;;;;;;1.27;0.70;;;;;;;25.82;41.21;100446.22;4992305;28;20050;-63
2022/07/02 10:35:04;;;;;;;2.78;0.80;;;;;;;25.93;40.08;100446.88;4974984;28;20051;-62
2022/07/02 10:37:31;;;;;;;1.58;0.70;;;;;;;26.02;41.71;100449.38;4992372;28;20097;-62
2022/07/02 10:40:02;;;;;;;2.83;0.88;;;;;;;26.06;39.39;100439.09;4991918;28;20046;-63
2022/07/02 10:42:42;;;;;;;2.38;0.77;;;;;;;26.07;39.37;100445.31;4974789;28;20074;-61
2022/07/02 10:45:16;;;;;;;1.55;0.60;;;;;;;26.08;39.38;100439.75;4974782;28;20537;-61
2022/07/02 10:48:03;;;;;;;2.38;0.70;;;;;;;26.04;39.37;100437.59;4974905;28;20050;-62
2022/07/02 10:50:39;;;;;;;1.40;0.73;;;;;;;26.06;39.78;100441.81;4991943;28;20387;-63
2022/07/02 10:53:20;;;;;;;2.35;0.88;;;;;;;26.02;39.51;100429.66;4992177;28;20058;-61
2022/07/02 10:55:53;;;;;;;1.75;0.90;;;;;;;26.11;40.61;100436.72;4991074;28;20534;-61
2022/07/02 10:58:30;;;;;;;2.22;0.82;;;;;;;26.29;40.16;100430.28;4991995;28;20050;-61
2022/07/02 11:01:08;;;;;;;1.58;0.60;;;;;;;26.64;40.52;100435.34;4992053;28;20042;-64
2022/07/02 11:03:35;;;;;;;1.63;0.70;;;;;;;27.07;41.33;100424.13;4991972;28;20088;-63
2022/07/02 11:06:06;;;;;;;1.17;0.60;;;;;;;27.43;40.46;100426.19;4974484;28;20038;-62
2022/07/02 11:08:45;;;;;;;2.42;0.60;;;;;;;27.65;38.13;100433.63;4991653;28;20042;-64
2022/07/02 11:11:18;;;;;;;2.53;0.70;;;;;;;27.81;37.73;100429.94;4991573;28;20050;-61
2022/07/02 11:13:54;;;;;;;3.13;0.88;;;;;;;27.87;37.95;100423.78;4974299;28;20046;-62
2022/07/02 11:16:22;;;;;;;4.47;0.90;;;;;;;28.00;38.95;100414.19;4991403;28;20046;-63
2022/07/02 11:18:50;;;;;;;1.45;0.60;;;;;;;28.07;38.21;100413.22;4991535;28;20094;-65
2022/07/02 11:21:18;;;;;;;1.98;0.80;;;;;;;28.12;38.08;100411.81;4991732;28;20050;-64
2022/07/02 11:23:45;;;;;;;2.38;0.90;;;;;;;28.15;38.05;100411.47;4974311;28;20474;-63
2022/07/02 11:26:19;;;;;;;2.15;0.88;;;;;;;28.15;36.93;100406.91;4991576;28;20046;-61
2022/07/02 11:28:47;;;;;;;1.13;0.80;;;;;;;28.16;36.95;100405.88;4974183;28;20093;-61
2022/07/02 11:31:14;;;;;;;1.33;0.73;;;;;;;28.16;37.39;100403.16;4974188;28;20053;-63
2022/07/02 11:33:47;;;;;;;2.72;0.80;;;;;;;28.20;34.55;100399.06;4974074;28;20066;-62